Airfield :
LOGIN :

Register | Disclaimer

   EN    FR    IT 

 










Legend :    VFR   Marginal VFR   IFR   Intensive IFR   Very Intensive IFR
Visi :
Ceiling :
>= 8 km
>= 3000ft
5 to 8 km
1000 to 3000 ft
1500m to 5 km
500 to 1000 ft
800 to 1500m
200 to 500 ft
< 800m
< 200 ft
Symbols :   Thunderstorms  Fog  Heavy snow  Heavy precipitations  Wind > 20 kt
SIGMETs :     Misc.  Thunderstorms  Icing  Turbulence  Mountain Waves  Volcanic Ashes






- Airport Elevation : 1247 ft
- IATA code : PRG


LKPR - Praha Ruzyne

CURRENT METAR :
  • 221530Z 08004KT 050V110 4500 BR FEW009 13/12 Q1023 TEMPO 3000 BR

EXPIRED METARs :
  • 221500Z 07003KT 5000 BR FEW009 14/13 Q1023 TEMPO 3000 BR
  • 221430Z 04003KT 350V080 6000 FEW011 SCT029 15/13 Q1023 NOSIG
  • 221400Z 01003KT 300V030 6000 BKN030 15/13 Q1023 NOSIG
  • 221330Z 07004KT 030V090 7000 FEW030 16/13 Q1023 NOSIG
  • 221300Z 03003KT 340V070 6000 FEW005 15/13 Q1023 NOSIG

TAF TAF LKPR
Valid from the 22 at 12:00 until the 23 at 18:00 UTC


221100Z 2212/2318 VRB02KT 4000 BR SCT002 OVC003
BECMG 2212/2214 SCT003
TEMPO 2212/2218 01005KT 7000
BECMG 2219/2222 0500 FG BKN002
TEMPO 2222/2309 0300 FG OVC001
BECMG 2309/2312 2500 BR BKN004
TEMPO 2312/2317 5000 BR BKN007
PROB30
TEMPO 2313/2316 SCT010



MET'MAP, your aeronautical weather chart ! - Copyright ORBIFLY December 2007 - Disclaimer

ORBIFLY MET'MAP TEAM :

Programming & Development : Alexandra Zaïnal
Concept & Development : Baudouin d'Aumeries
Co-Development & Prog : Marc-Olivier Méhu
Technical & hardware support : Manuel Goepfert

Contact : metmap@orbifly.com




SOURCES & CREDITS :

   NOAA